createdAt,value
2018-11-04T00:00:08.122Z,95.79
2018-11-04T00:01:07.963Z,95.90
2018-11-04T00:02:07.955Z,95.28
2018-11-04T00:03:07.944Z,95.07
2018-11-04T00:04:08.000Z,94.92
2018-11-04T00:05:07.955Z,94.82
2018-11-04T00:06:07.906Z,94.65
2018-11-04T00:07:07.896Z,94.96
2018-11-04T00:08:07.844Z,94.96
2018-11-04T00:09:07.919Z,94.96
2018-11-04T00:10:07.916Z,94.71
2018-11-04T00:11:07.867Z,94.82
2018-11-04T00:12:07.840Z,95.23
2018-11-04T00:13:07.889Z,95.23
2018-11-04T00:14:07.878Z,94.82
2018-11-04T00:15:07.812Z,94.92
2018-11-04T00:16:07.801Z,94.92
2018-11-04T00:17:08.926Z,94.51
2018-11-04T00:18:07.741Z,94.15
2018-11-04T00:19:07.817Z,94.61
2018-11-04T00:20:07.770Z,94.78
2018-11-04T00:21:07.750Z,94.36
2018-11-04T00:22:07.742Z,94.46
2018-11-04T00:23:07.732Z,94.46
2018-11-04T00:24:07.933Z,94.36
2018-11-04T00:25:07.715Z,94.05
2018-11-04T00:26:07.693Z,93.95
2018-11-04T00:27:07.645Z,93.95
2018-11-04T00:28:07.685Z,93.74
2018-11-04T00:29:07.698Z,93.63
2018-11-04T00:30:07.659Z,93.74
2018-11-04T00:31:07.643Z,93.74
2018-11-04T00:32:07.632Z,93.84
2018-11-04T00:33:07.638Z,93.63
2018-11-04T00:34:07.639Z,93.84
2018-11-04T00:35:07.596Z,93.74
2018-11-04T00:36:07.591Z,94.05
2018-11-04T00:37:07.571Z,93.95
2018-11-04T00:38:07.521Z,94.01
2018-11-04T00:39:07.590Z,93.70
2018-11-04T00:40:07.536Z,94.01
2018-11-04T00:41:07.533Z,93.59
2018-11-04T00:42:07.520Z,93.49
2018-11-04T00:43:07.513Z,92.86
2018-11-04T00:44:07.472Z,93.59
2018-11-04T00:45:07.537Z,93.38
2018-11-04T00:46:07.481Z,93.49
2018-11-04T00:47:07.433Z,93.28
2018-11-04T00:48:07.462Z,93.59
2018-11-04T00:49:07.489Z,93.80
2018-11-04T00:50:07.434Z,93.74
2018-11-04T00:51:07.427Z,93.74
2018-11-04T00:52:07.422Z,94.15
2018-11-04T00:53:07.360Z,93.80
2018-11-04T00:54:07.364Z,93.80
2018-11-04T00:55:07.427Z,93.80
2018-11-04T00:56:07.385Z,93.28
2018-11-04T00:57:07.314Z,93.59
2018-11-04T00:58:07.346Z,93.28
2018-11-04T00:59:07.336Z,93.07
2018-11-04T01:00:07.365Z,93.28
2018-11-04T01:01:07.296Z,93.59
2018-11-04T01:02:07.342Z,93.59
2018-11-04T01:03:07.434Z,93.33
2018-11-04T01:04:07.316Z,93.23
2018-11-04T01:05:07.273Z,93.33
2018-11-04T01:06:07.267Z,93.23
2018-11-04T01:07:07.219Z,93.07
2018-11-04T01:08:07.255Z,91.47
2018-11-04T01:09:07.287Z,91.58
2018-11-04T01:10:07.219Z,91.06
2018-11-04T01:11:07.214Z,91.16
2018-11-04T01:12:07.209Z,90.75
2018-11-04T01:13:07.227Z,91.06
2018-11-04T01:14:07.128Z,90.23
2018-11-04T01:15:07.163Z,90.23
2018-11-04T01:16:07.152Z,90.23
2018-11-04T01:17:07.232Z,89.71
2018-11-04T01:18:07.135Z,89.40
2018-11-04T01:19:07.125Z,89.81
2018-11-04T01:20:07.067Z,89.77
2018-11-04T01:21:07.141Z,89.25
2018-11-04T01:22:07.131Z,89.15
2018-11-04T01:23:07.037Z,89.36
2018-11-04T01:24:07.073Z,89.15
2018-11-04T01:25:07.049Z,89.15
2018-11-04T01:26:06.995Z,88.42
2018-11-04T01:27:07.007Z,89.21
2018-11-04T01:28:07.021Z,89.15
2018-11-04T01:29:07.022Z,89.31
2018-11-04T01:30:07.001Z,89.25
2018-11-04T01:31:06.983Z,88.90
2018-11-04T01:32:07.034Z,88.28
2018-11-04T01:33:06.978Z,87.87
2018-11-04T01:34:06.956Z,87.87
2018-11-04T01:35:06.895Z,88.18
2018-11-04T01:36:06.884Z,87.45
2018-11-04T01:37:06.965Z,87.24
2018-11-04T01:38:06.914Z,87.35
2018-11-04T01:39:06.899Z,87.97
2018-11-04T01:40:06.894Z,88.07
2018-11-04T01:41:06.836Z,87.72
2018-11-04T01:42:06.867Z,87.82
2018-11-04T01:43:06.855Z,88.03
2018-11-04T01:44:06.798Z,87.30
2018-11-04T01:45:06.827Z,87.30
2018-11-04T01:46:06.801Z,87.47
2018-11-04T01:47:06.794Z,87.37
2018-11-04T01:48:06.801Z,87.47
2018-11-04T01:49:06.785Z,87.16
2018-11-04T01:50:06.775Z,87.57
2018-11-04T01:51:06.797Z,87.02
2018-11-04T01:52:06.768Z,87.64
2018-11-04T01:53:06.750Z,87.43
2018-11-04T01:54:06.776Z,87.16
2018-11-04T01:55:06.722Z,86.91
2018-11-04T01:56:06.824Z,87.47
2018-11-04T01:57:06.656Z,87.37
2018-11-04T01:58:06.724Z,87.64
2018-11-04T01:59:06.680Z,87.23
2018-11-04T02:00:06.814Z,87.33
2018-11-04T02:01:06.666Z,87.43
2018-11-04T02:02:06.656Z,87.12
2018-11-04T02:03:06.674Z,87.33
2018-11-04T02:04:06.637Z,87.43
2018-11-04T02:05:06.635Z,87.43
2018-11-04T02:06:06.713Z,87.43
2018-11-04T02:07:06.648Z,87.43
2018-11-04T02:08:06.535Z,87.64
2018-11-04T02:09:06.585Z,87.64
2018-11-04T02:10:06.612Z,87.33
2018-11-04T02:11:06.516Z,87.23
2018-11-04T02:12:06.628Z,87.43
2018-11-04T02:13:06.489Z,87.64
2018-11-04T02:14:06.523Z,87.29
2018-11-04T02:15:06.515Z,87.43
2018-11-04T02:16:06.524Z,87.29
2018-11-04T02:17:06.541Z,87.29
2018-11-04T02:18:06.473Z,87.29
2018-11-04T02:19:06.422Z,87.18
2018-11-04T02:20:06.467Z,87.39
2018-11-04T02:21:06.446Z,87.29
2018-11-04T02:22:06.482Z,87.29
2018-11-04T02:23:06.435Z,87.39
2018-11-04T02:24:06.368Z,87.29
2018-11-04T02:25:06.373Z,87.39
2018-11-04T02:26:06.430Z,87.60
2018-11-04T02:27:06.382Z,87.39
2018-11-04T02:28:06.370Z,87.39
2018-11-04T02:29:06.320Z,87.08
2018-11-04T02:30:06.357Z,87.56
2018-11-04T02:31:06.390Z,87.56
2018-11-04T02:32:06.326Z,87.25
2018-11-04T02:33:06.388Z,87.35
2018-11-04T02:34:06.307Z,87.35
2018-11-04T02:35:06.320Z,87.46
2018-11-04T02:36:06.287Z,87.35
2018-11-04T02:37:06.274Z,87.35
2018-11-04T02:38:06.297Z,87.04
2018-11-04T02:39:06.259Z,87.04
2018-11-04T02:40:06.241Z,87.15
2018-11-04T02:41:06.238Z,87.04
2018-11-04T02:42:06.242Z,87.00
2018-11-04T02:43:06.243Z,87.15
2018-11-04T02:44:06.199Z,87.04
2018-11-04T02:45:06.183Z,86.49
2018-11-04T02:46:06.174Z,87.10
2018-11-04T02:47:06.267Z,87.21
2018-11-04T02:48:06.156Z,87.21
2018-11-04T02:49:06.227Z,87.21
2018-11-04T02:50:06.164Z,87.21
2018-11-04T02:51:06.123Z,86.90
2018-11-04T02:52:06.115Z,87.00
2018-11-04T02:53:06.066Z,86.69
2018-11-04T02:54:06.084Z,86.69
2018-11-04T02:55:06.113Z,86.90
2018-11-04T02:56:06.067Z,87.21
2018-11-04T02:57:06.056Z,86.90
2018-11-04T02:58:06.092Z,87.00
2018-11-04T02:59:06.073Z,87.00
2018-11-04T03:00:06.033Z,86.79
2018-11-04T03:01:06.020Z,86.55
2018-11-04T03:02:06.062Z,86.13
2018-11-04T03:03:06.126Z,86.07
2018-11-04T03:04:05.992Z,86.24
2018-11-04T03:05:05.925Z,86.18
2018-11-04T03:06:05.992Z,87.00
2018-11-04T03:07:05.945Z,86.28
2018-11-04T03:08:05.933Z,87.07
2018-11-04T03:09:05.883Z,87.41
2018-11-04T03:10:05.918Z,87.52
2018-11-04T03:11:05.944Z,87.00
2018-11-04T03:12:05.893Z,87.10
2018-11-04T03:13:05.918Z,87.21
2018-11-04T03:14:05.883Z,87.07
2018-11-04T03:15:05.859Z,87.10
2018-11-04T03:16:05.888Z,87.00
2018-11-04T03:17:05.836Z,87.00
2018-11-04T03:18:05.830Z,87.10
2018-11-04T03:19:05.859Z,87.41
2018-11-04T03:20:05.808Z,87.07
2018-11-04T03:21:05.757Z,86.79
2018-11-04T03:22:05.799Z,87.52
2018-11-04T03:23:05.826Z,86.96
2018-11-04T03:24:05.768Z,87.37
2018-11-04T03:25:05.749Z,87.41
2018-11-04T03:26:05.745Z,87.00
2018-11-04T03:27:05.733Z,87.17
2018-11-04T03:28:05.713Z,87.27
2018-11-04T03:29:05.715Z,87.17
2018-11-04T03:30:05.718Z,87.27
2018-11-04T03:31:05.692Z,86.96
2018-11-04T03:32:05.715Z,86.76
2018-11-04T03:33:05.674Z,87.27
2018-11-04T03:34:05.664Z,87.37
2018-11-04T03:35:05.646Z,86.86
2018-11-04T03:36:05.633Z,87.17
2018-11-04T03:37:05.657Z,87.07
2018-11-04T03:38:05.571Z,86.96
2018-11-04T03:39:05.613Z,86.86
2018-11-04T03:40:05.636Z,86.86
2018-11-04T03:41:05.546Z,86.86
2018-11-04T03:42:05.529Z,86.82
2018-11-04T03:43:05.564Z,86.61
2018-11-04T03:44:05.597Z,86.92
2018-11-04T03:45:05.549Z,87.02
2018-11-04T03:46:05.526Z,86.61
2018-11-04T03:47:05.519Z,86.41
2018-11-04T03:48:05.504Z,86.36
2018-11-04T03:49:05.516Z,86.20
2018-11-04T03:50:05.434Z,86.26
2018-11-04T03:51:05.464Z,86.68
2018-11-04T03:52:05.651Z,86.10
2018-11-04T03:53:05.466Z,86.57
2018-11-04T03:54:05.442Z,86.26
2018-11-04T03:55:05.431Z,85.95
2018-11-04T03:56:05.398Z,86.16
2018-11-04T03:57:05.464Z,86.05
2018-11-04T03:58:05.493Z,86.36
2018-11-04T03:59:05.388Z,86.16
2018-11-04T04:00:05.385Z,85.95
2018-11-04T04:01:05.376Z,86.05
2018-11-04T04:02:05.443Z,86.05
2018-11-04T04:03:05.345Z,86.05
2018-11-04T04:04:05.337Z,86.32
2018-11-04T04:05:05.380Z,86.12
2018-11-04T04:06:05.377Z,86.16
2018-11-04T04:07:05.306Z,86.02
2018-11-04T04:08:05.302Z,86.43
2018-11-04T04:09:05.282Z,86.53
2018-11-04T04:10:05.310Z,86.16
2018-11-04T04:11:05.252Z,86.36
2018-11-04T04:12:05.349Z,86.74
2018-11-04T04:13:05.240Z,86.63
2018-11-04T04:14:05.188Z,86.47
2018-11-04T04:15:05.243Z,86.43
2018-11-04T04:16:05.229Z,86.63
2018-11-04T04:17:05.182Z,86.74
2018-11-04T04:18:05.220Z,86.74
2018-11-04T04:19:05.172Z,86.84
2018-11-04T04:20:05.170Z,86.53
2018-11-04T04:21:05.147Z,87.26
2018-11-04T04:22:05.137Z,87.35
2018-11-04T04:23:05.161Z,87.46
2018-11-04T04:24:05.114Z,87.35
2018-11-04T04:25:05.097Z,87.05
2018-11-04T04:26:05.075Z,86.84
2018-11-04T04:27:05.092Z,86.94
2018-11-04T04:28:05.074Z,87.26
2018-11-04T04:29:05.069Z,87.15
2018-11-04T04:30:05.035Z,87.35
2018-11-04T04:31:05.061Z,87.77
2018-11-04T04:32:05.040Z,87.52
2018-11-04T04:33:05.060Z,87.83
2018-11-04T04:34:05.009Z,87.63
2018-11-04T04:35:04.988Z,87.63
2018-11-04T04:36:05.038Z,87.52
2018-11-04T04:37:04.970Z,87.83
2018-11-04T04:38:04.996Z,87.63
2018-11-04T04:39:04.977Z,87.83
2018-11-04T04:40:04.945Z,87.42
2018-11-04T04:41:04.982Z,88.45
2018-11-04T04:42:04.913Z,88.76
2018-11-04T04:43:04.900Z,88.56
2018-11-04T04:44:04.898Z,88.56
2018-11-04T04:45:04.880Z,88.72
2018-11-04T04:46:04.901Z,88.62
2018-11-04T04:47:04.857Z,88.51
2018-11-04T04:48:04.803Z,88.72
2018-11-04T04:49:04.804Z,88.51
2018-11-04T04:50:04.836Z,88.62
2018-11-04T04:51:04.868Z,88.82
2018-11-04T04:52:04.809Z,88.47
2018-11-04T04:53:04.797Z,87.54
2018-11-04T04:54:04.787Z,87.44
2018-11-04T04:55:04.841Z,87.54
2018-11-04T04:56:04.804Z,87.34
2018-11-04T04:57:04.707Z,87.65
2018-11-04T04:58:04.741Z,87.44
2018-11-04T04:59:04.816Z,87.75
2018-11-04T05:00:04.727Z,87.65
2018-11-04T05:01:04.771Z,86.93
2018-11-04T05:02:04.696Z,86.82
2018-11-04T05:03:04.688Z,86.93
2018-11-04T05:04:04.675Z,87.03
2018-11-04T05:05:04.798Z,86.72
2018-11-04T05:06:04.652Z,87.60
2018-11-04T05:07:04.685Z,87.54
2018-11-04T05:08:04.633Z,86.72
2018-11-04T05:09:04.621Z,86.68
2018-11-04T05:10:04.607Z,87.09
2018-11-04T05:11:04.551Z,86.79
2018-11-04T05:12:04.619Z,87.30
2018-11-04T05:13:04.575Z,86.47
2018-11-04T05:14:04.603Z,87.09
2018-11-04T05:15:04.567Z,86.99
2018-11-04T05:16:04.547Z,86.79
2018-11-04T05:17:04.537Z,86.79
2018-11-04T05:18:04.519Z,86.58
2018-11-04T05:19:04.503Z,86.68
2018-11-04T05:20:04.501Z,86.68
2018-11-04T05:21:04.494Z,87.09
2018-11-04T05:22:04.483Z,86.68
2018-11-04T05:23:04.470Z,86.88
2018-11-04T05:24:04.495Z,86.99
2018-11-04T05:25:04.453Z,86.47
2018-11-04T05:26:04.443Z,86.88
2018-11-04T05:27:04.426Z,86.88
2018-11-04T05:28:04.435Z,86.79
2018-11-04T05:29:04.432Z,86.99
2018-11-04T05:30:04.391Z,87.19
2018-11-04T05:31:04.381Z,86.88
2018-11-04T05:32:04.370Z,86.99
2018-11-04T05:33:04.366Z,86.85
2018-11-04T05:34:04.381Z,86.85
2018-11-04T05:35:04.334Z,87.15
2018-11-04T05:36:04.329Z,86.85
2018-11-04T05:37:04.358Z,87.05
2018-11-04T05:38:04.396Z,86.74
2018-11-04T05:39:04.289Z,86.64
2018-11-04T05:40:04.242Z,86.74
2018-11-04T05:41:04.270Z,87.15
2018-11-04T05:42:04.267Z,86.64
2018-11-04T05:43:04.275Z,85.98
2018-11-04T05:44:04.250Z,85.88
2018-11-04T05:45:04.226Z,87.12
2018-11-04T05:46:04.216Z,86.60
2018-11-04T05:47:04.207Z,86.64
2018-11-04T05:48:04.195Z,86.91
2018-11-04T05:49:04.187Z,87.15
2018-11-04T05:50:04.179Z,86.70
2018-11-04T05:51:04.172Z,86.60
2018-11-04T05:52:04.317Z,86.70
2018-11-04T05:53:04.173Z,86.80
2018-11-04T05:54:04.230Z,86.91
2018-11-04T05:55:04.122Z,86.97
2018-11-04T05:56:04.114Z,86.56
2018-11-04T05:57:04.125Z,86.35
2018-11-04T05:58:04.181Z,86.25
2018-11-04T05:59:04.079Z,85.94
2018-11-04T06:00:04.071Z,85.84
2018-11-04T06:01:04.057Z,85.84
2018-11-04T06:02:04.099Z,86.05
2018-11-04T06:03:04.041Z,85.74
2018-11-04T06:04:03.986Z,85.18
2018-11-04T06:05:04.022Z,85.70
2018-11-04T06:06:04.011Z,84.98
2018-11-04T06:07:04.044Z,85.39
2018-11-04T06:08:04.007Z,85.39
2018-11-04T06:09:03.983Z,85.28
2018-11-04T06:10:03.959Z,84.98
2018-11-04T06:11:03.949Z,85.02
2018-11-04T06:12:03.968Z,85.08
2018-11-04T06:13:03.939Z,85.08
2018-11-04T06:14:03.921Z,85.18
2018-11-04T06:15:03.939Z,85.39
2018-11-04T06:16:03.898Z,84.98
2018-11-04T06:17:03.887Z,85.08
2018-11-04T06:18:03.877Z,84.98
2018-11-04T06:19:03.846Z,84.88
2018-11-04T06:20:03.860Z,84.56
2018-11-04T06:21:03.874Z,84.47
2018-11-04T06:22:03.831Z,84.67
2018-11-04T06:23:03.802Z,85.08
2018-11-04T06:24:03.815Z,84.67
2018-11-04T06:25:03.798Z,85.18
2018-11-04T06:26:03.795Z,84.88
2018-11-04T06:27:03.776Z,84.98
2018-11-04T06:28:03.810Z,84.88
2018-11-04T06:29:03.716Z,84.77
2018-11-04T06:30:03.745Z,84.67
2018-11-04T06:31:03.737Z,84.67
2018-11-04T06:32:03.732Z,84.67
2018-11-04T06:33:03.745Z,84.77
2018-11-04T06:34:03.710Z,84.56
2018-11-04T06:35:03.694Z,84.77
2018-11-04T06:36:03.689Z,84.67
2018-11-04T06:37:03.706Z,84.67
2018-11-04T06:38:03.667Z,84.42
2018-11-04T06:39:03.658Z,84.67
2018-11-04T06:40:03.655Z,84.47
2018-11-04T06:41:03.672Z,84.56
2018-11-04T06:42:03.610Z,84.47
2018-11-04T06:43:03.610Z,84.32
2018-11-04T06:44:03.597Z,84.42
2018-11-04T06:45:03.590Z,84.74
2018-11-04T06:46:03.610Z,84.63
2018-11-04T06:47:03.644Z,84.67
2018-11-04T06:48:03.561Z,84.53
2018-11-04T06:49:03.543Z,84.22
2018-11-04T06:50:03.572Z,84.36
2018-11-04T06:51:03.622Z,84.67
2018-11-04T06:52:03.543Z,84.56
2018-11-04T06:53:03.531Z,84.36
2018-11-04T06:54:03.499Z,84.47
2018-11-04T06:55:03.480Z,84.67
2018-11-04T06:56:03.473Z,84.77
2018-11-04T06:57:03.585Z,84.88
2018-11-04T06:58:03.486Z,84.98
2018-11-04T06:59:03.440Z,84.77
2018-11-04T07:00:03.502Z,84.67
2018-11-04T07:01:03.495Z,84.26
2018-11-04T07:02:03.402Z,84.67
2018-11-04T07:03:03.394Z,84.53
2018-11-04T07:04:03.384Z,84.56
2018-11-04T07:05:03.402Z,84.47
2018-11-04T07:06:03.356Z,84.47
2018-11-04T07:07:03.378Z,84.67
2018-11-04T07:08:03.342Z,84.67
2018-11-04T07:09:03.426Z,84.77
2018-11-04T07:10:03.362Z,84.47
2018-11-04T07:11:03.278Z,84.56
2018-11-04T07:12:03.295Z,84.42
2018-11-04T07:13:03.248Z,84.42
2018-11-04T07:14:03.272Z,84.36
2018-11-04T07:15:03.297Z,84.32
2018-11-04T07:16:03.257Z,84.22
2018-11-04T07:17:03.220Z,84.42
2018-11-04T07:18:03.242Z,84.12
2018-11-04T07:19:03.214Z,84.12
2018-11-04T07:20:03.271Z,84.12
2018-11-04T07:21:03.198Z,83.50
2018-11-04T07:22:03.149Z,83.50
2018-11-04T07:23:03.206Z,83.91
2018-11-04T07:24:03.173Z,83.81
2018-11-04T07:25:03.156Z,83.61
2018-11-04T07:26:03.101Z,83.56
2018-11-04T07:27:03.203Z,83.70
2018-11-04T07:28:03.127Z,83.61
2018-11-04T07:29:03.118Z,83.46
2018-11-04T07:30:03.068Z,83.77
2018-11-04T07:31:03.093Z,83.05
2018-11-04T07:32:03.210Z,83.09
2018-11-04T07:33:03.081Z,83.05
2018-11-04T07:34:03.007Z,83.26
2018-11-04T07:35:03.011Z,82.84
2018-11-04T07:36:03.043Z,83.05
2018-11-04T07:37:03.070Z,82.64
2018-11-04T07:38:03.024Z,82.84
2018-11-04T07:39:03.005Z,82.84
2018-11-04T07:40:02.995Z,82.29
2018-11-04T07:41:02.988Z,82.40
2018-11-04T07:42:02.968Z,82.19
2018-11-04T07:43:02.968Z,82.29
2018-11-04T07:44:02.931Z,82.29
2018-11-04T07:45:02.909Z,81.54
2018-11-04T07:46:02.982Z,81.54
2018-11-04T07:47:02.918Z,81.43
2018-11-04T07:48:02.938Z,81.54
2018-11-04T07:49:02.900Z,81.54
2018-11-04T07:50:02.911Z,81.54
2018-11-04T07:51:02.906Z,81.74
2018-11-04T07:52:02.881Z,81.85
2018-11-04T07:53:02.854Z,81.34
2018-11-04T07:54:02.992Z,81.64
2018-11-04T07:55:02.839Z,81.34
2018-11-04T07:56:02.860Z,81.43
2018-11-04T07:57:02.915Z,81.54
2018-11-04T07:58:02.805Z,81.34
2018-11-04T07:59:02.791Z,81.23
2018-11-04T08:00:02.825Z,81.29
2018-11-04T08:01:02.863Z,81.29
2018-11-04T08:02:02.831Z,81.20
2018-11-04T08:03:02.751Z,81.40
2018-11-04T08:04:02.815Z,81.20
2018-11-04T08:05:02.727Z,80.88
2018-11-04T08:06:02.714Z,80.68
2018-11-04T08:07:02.731Z,80.13
2018-11-04T08:08:02.700Z,80.64
2018-11-04T08:09:02.642Z,80.33
2018-11-04T08:10:02.712Z,80.23
2018-11-04T08:11:02.694Z,80.44
2018-11-04T08:12:02.647Z,80.33
2018-11-04T08:13:02.638Z,80.03
2018-11-04T08:14:02.630Z,80.03
2018-11-04T08:15:02.647Z,80.23
2018-11-04T08:16:02.621Z,79.93
2018-11-04T08:17:02.596Z,79.68
2018-11-04T08:18:02.630Z,79.58
2018-11-04T08:19:02.576Z,79.68
2018-11-04T08:20:02.571Z,79.79
2018-11-04T08:21:02.614Z,79.38
2018-11-04T08:22:02.539Z,79.48
2018-11-04T08:23:02.540Z,79.58
2018-11-04T08:24:02.519Z,79.27
2018-11-04T08:25:02.515Z,79.58
2018-11-04T08:26:02.461Z,79.38
2018-11-04T08:27:02.522Z,79.17
2018-11-04T08:28:02.474Z,79.38
2018-11-04T08:29:02.462Z,79.58
2018-11-04T08:30:02.455Z,79.38
2018-11-04T08:31:02.484Z,79.64
2018-11-04T08:32:02.447Z,78.86
2018-11-04T08:33:02.423Z,79.03
2018-11-04T08:34:02.447Z,78.93
2018-11-04T08:35:02.411Z,79.13
2018-11-04T08:36:02.432Z,78.93
2018-11-04T08:37:02.392Z,79.10
2018-11-04T08:38:02.372Z,78.59
2018-11-04T08:39:02.385Z,78.38
2018-11-04T08:40:02.470Z,77.87
2018-11-04T08:41:02.334Z,77.56
2018-11-04T08:42:02.358Z,77.22
2018-11-04T08:43:02.319Z,77.97
2018-11-04T08:44:02.296Z,77.83
2018-11-04T08:45:02.295Z,78.24
2018-11-04T08:46:02.316Z,77.22
2018-11-04T08:47:02.238Z,77.73
2018-11-04T08:48:02.262Z,77.63
2018-11-04T08:49:02.213Z,77.53
2018-11-04T08:50:02.241Z,77.46
2018-11-04T08:51:02.279Z,77.73
2018-11-04T08:52:02.218Z,77.53
2018-11-04T08:53:02.270Z,77.53
2018-11-04T08:54:02.144Z,77.63
2018-11-04T08:55:02.185Z,77.42
2018-11-04T08:56:02.223Z,77.32
2018-11-04T08:57:02.245Z,77.94
2018-11-04T08:58:02.179Z,77.63
2018-11-04T08:59:02.210Z,77.22
2018-11-04T09:00:02.172Z,76.91
2018-11-04T09:01:02.116Z,77.01
2018-11-04T09:02:02.071Z,76.91
2018-11-04T09:03:02.222Z,77.22
2018-11-04T09:04:02.086Z,76.71
2018-11-04T09:05:02.080Z,77.12
2018-11-04T09:06:02.061Z,77.01
2018-11-04T09:07:02.058Z,77.12
2018-11-04T09:08:02.004Z,77.01
2018-11-04T09:09:02.073Z,76.61
2018-11-04T09:10:02.021Z,76.98
2018-11-04T09:11:01.964Z,77.01
2018-11-04T09:12:02.025Z,76.57
2018-11-04T09:13:01.988Z,76.26
2018-11-04T09:14:02.036Z,76.16
2018-11-04T09:15:01.979Z,76.26
2018-11-04T09:16:01.978Z,76.47
2018-11-04T09:17:02.001Z,76.57
2018-11-04T09:18:01.963Z,77.19
2018-11-04T09:19:01.921Z,76.57
2018-11-04T09:20:01.915Z,76.47
2018-11-04T09:21:01.902Z,76.67
2018-11-04T09:22:02.076Z,76.47
2018-11-04T09:23:01.877Z,76.26
2018-11-04T09:24:01.873Z,76.43
2018-11-04T09:25:01.853Z,76.57
2018-11-04T09:26:01.845Z,76.33
2018-11-04T09:27:01.834Z,76.26
2018-11-04T09:28:01.882Z,76.33
2018-11-04T09:29:01.837Z,76.26
2018-11-04T09:30:01.810Z,76.47
2018-11-04T09:31:01.819Z,76.57
2018-11-04T09:32:01.793Z,76.26
2018-11-04T09:33:01.801Z,76.23
2018-11-04T09:34:01.756Z,76.12
2018-11-04T09:35:02.000Z,76.12
2018-11-04T09:36:01.819Z,76.12
2018-11-04T09:37:01.730Z,76.12
2018-11-04T09:38:01.746Z,76.33
2018-11-04T09:39:01.772Z,76.03
2018-11-04T09:40:01.716Z,75.92
2018-11-04T09:41:01.682Z,75.78
2018-11-04T09:42:01.672Z,75.89
2018-11-04T09:43:01.664Z,75.41
2018-11-04T09:44:01.690Z,75.78
2018-11-04T09:45:01.602Z,75.41
2018-11-04T09:46:01.839Z,75.07
2018-11-04T09:47:01.616Z,75.17
2018-11-04T09:48:01.634Z,75.51
2018-11-04T09:49:01.605Z,75.17
2018-11-04T09:50:01.844Z,75.48
2018-11-04T09:51:01.622Z,75.37
2018-11-04T09:52:01.688Z,75.48
2018-11-04T09:53:01.553Z,75.58
2018-11-04T09:54:01.497Z,75.37
2018-11-04T09:55:01.561Z,75.27
2018-11-04T09:56:01.491Z,74.87
2018-11-04T09:57:01.509Z,75.17
2018-11-04T09:58:01.534Z,75.07
2018-11-04T09:59:01.486Z,75.07
2018-11-04T10:00:01.477Z,75.17
2018-11-04T10:01:01.464Z,75.27
2018-11-04T10:02:01.471Z,75.17
2018-11-04T10:03:01.489Z,75.17
2018-11-04T10:04:01.384Z,75.07
2018-11-04T10:05:01.432Z,75.27
2018-11-04T10:06:01.481Z,75.17
2018-11-04T10:07:01.416Z,75.17
2018-11-04T10:08:01.425Z,75.27
2018-11-04T10:09:01.379Z,74.87
2018-11-04T10:10:01.336Z,74.83
2018-11-04T10:11:01.386Z,74.87
2018-11-04T10:12:01.369Z,74.83
2018-11-04T10:13:01.332Z,75.17
2018-11-04T10:14:01.369Z,74.87
2018-11-04T10:15:01.313Z,74.76
2018-11-04T10:16:01.347Z,75.17
2018-11-04T10:17:01.307Z,74.97
2018-11-04T10:18:01.313Z,74.87
2018-11-04T10:19:01.484Z,74.87
2018-11-04T10:20:01.542Z,74.97
2018-11-04T10:21:01.711Z,74.97
2018-11-04T10:22:01.218Z,74.87
2018-11-04T10:23:01.257Z,75.17
2018-11-04T10:24:01.216Z,75.17
2018-11-04T10:25:01.246Z,75.27
2018-11-04T10:26:01.157Z,75.48
2018-11-04T10:27:01.179Z,74.87
2018-11-04T10:28:01.243Z,75.27
2018-11-04T10:29:01.160Z,74.87
2018-11-04T10:30:01.165Z,75.48
2018-11-04T10:31:01.165Z,74.97
2018-11-04T10:32:01.094Z,74.83
2018-11-04T10:33:01.145Z,74.87
2018-11-04T10:34:01.106Z,74.76
2018-11-04T10:35:01.116Z,74.87
2018-11-04T10:36:01.081Z,74.93
2018-11-04T10:37:01.101Z,74.56
2018-11-04T10:38:01.099Z,74.52
2018-11-04T10:39:01.059Z,74.32
2018-11-04T10:40:01.046Z,74.52
2018-11-04T10:41:01.072Z,74.32
2018-11-04T10:42:01.022Z,74.42
2018-11-04T10:43:01.006Z,74.32
2018-11-04T10:44:01.037Z,74.49
2018-11-04T10:45:00.951Z,73.81
2018-11-04T10:46:00.976Z,73.98
2018-11-04T10:47:00.968Z,73.98
2018-11-04T10:48:00.957Z,73.57
2018-11-04T10:49:01.080Z,73.67
2018-11-04T10:50:00.984Z,73.57
2018-11-04T10:51:00.876Z,73.77
2018-11-04T10:52:00.921Z,73.67
2018-11-04T10:53:00.871Z,73.88
2018-11-04T10:54:00.925Z,73.77
2018-11-04T10:55:00.997Z,73.98
2018-11-04T10:56:00.861Z,73.98
2018-11-04T10:57:00.886Z,73.57
2018-11-04T10:58:00.852Z,73.64
2018-11-04T10:59:01.016Z,73.54
2018-11-04T11:00:00.821Z,73.43
2018-11-04T11:01:00.808Z,73.23
2018-11-04T11:02:00.802Z,73.33
2018-11-04T11:03:00.788Z,73.13
2018-11-04T11:04:00.827Z,73.23
2018-11-04T11:05:00.790Z,72.82
2018-11-04T11:06:00.759Z,72.72
2018-11-04T11:07:00.749Z,72.72
2018-11-04T11:08:00.745Z,72.89
2018-11-04T11:09:00.781Z,72.82
2018-11-04T11:10:00.713Z,72.58
2018-11-04T11:11:00.776Z,72.31
2018-11-04T11:12:00.694Z,72.52
2018-11-04T11:13:00.681Z,72.82
2018-11-04T11:14:00.708Z,72.00
2018-11-04T11:15:00.663Z,72.72
2018-11-04T11:16:00.658Z,72.41
2018-11-04T11:17:00.640Z,72.48
2018-11-04T11:18:00.636Z,72.38
2018-11-04T11:19:00.643Z,71.87
2018-11-04T11:20:00.611Z,71.36
2018-11-04T11:21:00.604Z,71.97
2018-11-04T11:22:00.581Z,71.36
2018-11-04T11:23:00.710Z,71.26
2018-11-04T11:24:00.601Z,71.36
2018-11-04T11:25:00.562Z,72.17
2018-11-04T11:26:00.537Z,71.46
2018-11-04T11:27:00.533Z,71.33
2018-11-04T11:28:00.520Z,71.73
2018-11-04T11:29:00.502Z,72.14
2018-11-04T11:30:00.512Z,72.28
2018-11-04T11:31:00.497Z,72.17
2018-11-04T11:32:00.479Z,71.87
2018-11-04T11:33:00.424Z,72.69
2018-11-04T11:34:00.490Z,72.58
2018-11-04T11:35:00.447Z,72.17
2018-11-04T11:36:00.453Z,71.67
2018-11-04T11:37:00.433Z,72.69
2018-11-04T11:38:00.532Z,72.28
2018-11-04T11:39:00.441Z,71.67
2018-11-04T11:40:00.374Z,72.58
2018-11-04T11:41:00.440Z,72.48
2018-11-04T11:42:00.366Z,72.08
2018-11-04T11:43:00.368Z,72.14
2018-11-04T11:44:00.389Z,72.14
2018-11-04T11:45:00.414Z,71.84
2018-11-04T11:46:00.363Z,71.33
2018-11-04T11:47:00.278Z,71.33
2018-11-04T11:48:00.330Z,71.43
2018-11-04T11:49:00.308Z,71.33
2018-11-04T11:50:00.284Z,71.70
2018-11-04T11:51:00.309Z,71.09
2018-11-04T11:52:00.365Z,71.09
2018-11-04T11:53:00.211Z,70.86
2018-11-04T11:54:00.251Z,70.75
2018-11-04T11:55:00.263Z,70.86
2018-11-04T11:56:00.217Z,70.45
2018-11-04T11:57:00.215Z,70.24
2018-11-04T11:58:00.148Z,70.55
2018-11-04T11:59:00.229Z,70.45
2018-11-04T12:00:00.174Z,69.97
2018-11-04T12:01:00.167Z,70.24
2018-11-04T12:02:00.207Z,70.24
2018-11-04T12:03:00.150Z,69.73
2018-11-04T12:04:00.162Z,69.53
2018-11-04T12:05:00.118Z,69.73
2018-11-04T12:06:00.118Z,70.14
2018-11-04T12:07:00.055Z,70.04
2018-11-04T12:08:00.107Z,69.93
2018-11-04T12:09:00.076Z,70.14
2018-11-04T12:10:00.068Z,69.93
2018-11-04T12:11:00.097Z,69.53
2018-11-04T12:12:00.050Z,70.04
2018-11-04T12:13:00.040Z,70.24
2018-11-04T12:14:00.041Z,70.04
2018-11-04T12:15:00.012Z,70.34
2018-11-04T12:16:00.068Z,71.36
2018-11-04T12:16:59.990Z,71.26
2018-11-04T12:17:59.986Z,70.55
2018-11-04T12:18:59.975Z,70.95
2018-11-04T12:19:59.959Z,71.36
2018-11-04T12:20:59.988Z,71.47
2018-11-04T12:21:59.893Z,71.26
2018-11-04T12:22:59.927Z,70.82
2018-11-04T12:23:59.916Z,70.21
2018-11-04T12:24:59.947Z,69.80
2018-11-04T12:25:59.862Z,70.01
2018-11-04T12:26:59.884Z,69.87
2018-11-04T12:27:59.885Z,69.36
2018-11-04T12:28:59.814Z,69.46
2018-11-04T12:29:59.854Z,69.26
2018-11-04T12:30:59.841Z,69.46
2018-11-04T12:31:59.794Z,68.96
2018-11-04T12:32:59.841Z,69.57
2018-11-04T12:33:59.819Z,69.46
2018-11-04T12:34:59.886Z,69.87
2018-11-04T12:35:59.791Z,69.67
2018-11-04T12:36:59.791Z,70.48
2018-11-04T12:37:59.720Z,70.01
2018-11-04T12:38:59.756Z,69.97
2018-11-04T12:39:59.789Z,69.80
2018-11-04T12:40:59.704Z,70.10
2018-11-04T12:41:59.770Z,70.68
2018-11-04T12:42:59.733Z,70.38
2018-11-04T12:43:59.698Z,70.38
2018-11-04T12:44:59.831Z,70.38
2018-11-04T12:45:59.681Z,70.48
2018-11-04T12:46:59.698Z,70.58
2018-11-04T12:47:59.688Z,70.28
2018-11-04T12:48:59.653Z,70.38
2018-11-04T12:49:59.674Z,70.07
2018-11-04T12:50:59.734Z,70.18
2018-11-04T12:51:59.618Z,69.94